createdAt,value
2023-05-08T00:02:03.001Z,7.30
2023-05-08T00:04:36.607Z,6.97
2023-05-08T00:07:04.935Z,7.30
2023-05-08T00:09:33.220Z,7.35
2023-05-08T00:12:01.529Z,7.07
2023-05-08T00:14:29.672Z,7.72
2023-05-08T00:16:59.332Z,7.22
2023-05-08T00:19:27.489Z,7.57
2023-05-08T00:21:55.539Z,7.05
2023-05-08T00:24:23.594Z,7.65
2023-05-08T00:26:51.822Z,7.88
2023-05-08T00:29:19.934Z,7.53
2023-05-08T00:31:47.977Z,8.15
2023-05-08T00:34:17.703Z,7.70
2023-05-08T00:36:45.731Z,7.82
2023-05-08T00:39:14.150Z,7.60
2023-05-08T00:41:42.427Z,7.57
2023-05-08T00:44:10.766Z,7.05
2023-05-08T00:46:39.227Z,8.27
2023-05-08T00:49:35.672Z,7.10
2023-05-08T00:52:08.519Z,7.25
2023-05-08T00:54:37.381Z,7.07
2023-05-08T00:57:07.800Z,7.22
2023-05-08T00:59:37.024Z,7.50
2023-05-08T01:02:06.061Z,7.88
2023-05-08T01:04:36.388Z,7.32
2023-05-08T01:07:04.610Z,7.00
2023-05-08T01:09:32.954Z,7.07
2023-05-08T01:12:09.534Z,7.07
2023-05-08T01:14:51.106Z,6.57
2023-05-08T01:17:25.919Z,6.55
2023-05-08T01:20:10.640Z,7.30
2023-05-08T01:23:01.674Z,7.00
2023-05-08T01:26:08.549Z,7.00
2023-05-08T01:29:09.742Z,6.88
2023-05-08T01:31:51.668Z,7.45
2023-05-08T01:34:26.008Z,8.10
2023-05-08T01:36:59.497Z,6.65
2023-05-08T01:39:36.137Z,7.70
2023-05-08T01:42:09.256Z,8.25
2023-05-08T01:44:42.866Z,6.93
2023-05-08T01:47:16.506Z,7.07
2023-05-08T01:49:51.756Z,7.22
2023-05-08T01:52:30.900Z,7.60
2023-05-08T01:55:02.878Z,6.70
2023-05-08T01:57:34.491Z,6.72
2023-05-08T02:00:05.355Z,8.27
2023-05-08T02:02:38.659Z,7.22
2023-05-08T02:05:11.971Z,6.80
2023-05-08T02:07:42.204Z,7.05
2023-05-08T02:10:12.652Z,6.65
2023-05-08T02:12:42.363Z,6.53
2023-05-08T02:15:13.787Z,7.10
2023-05-08T02:17:43.213Z,6.90
2023-05-08T02:20:16.961Z,6.50
2023-05-08T02:22:46.997Z,6.15
2023-05-08T02:25:17.199Z,6.45
2023-05-08T02:27:49.976Z,6.03
2023-05-08T02:30:20.417Z,6.88
2023-05-08T02:32:51.085Z,7.35
2023-05-08T02:35:21.289Z,7.05
2023-05-08T02:37:53.479Z,6.75
2023-05-08T02:40:25.537Z,7.05
2023-05-08T02:43:43.340Z,5.75
2023-05-08T02:46:16.862Z,6.55
2023-05-08T02:48:52.379Z,6.90
2023-05-08T02:51:31.229Z,6.30
2023-05-08T02:54:10.511Z,6.15
2023-05-08T02:56:56.684Z,6.70
2023-05-08T02:59:33.644Z,6.45
2023-05-08T03:02:23.518Z,5.85
2023-05-08T03:04:57.333Z,6.95
2023-05-08T03:08:21.048Z,6.53
2023-05-08T03:10:59.002Z,6.13
2023-05-08T03:13:45.182Z,5.70
2023-05-08T03:16:29.803Z,6.80
2023-05-08T03:19:15.598Z,5.97
2023-05-08T03:21:59.100Z,7.50
2023-05-08T03:24:46.659Z,7.07
2023-05-08T03:27:19.341Z,6.60
2023-05-08T03:29:48.765Z,7.32
2023-05-08T03:33:03.041Z,7.00
2023-05-08T03:35:58.365Z,5.75
2023-05-08T03:38:37.148Z,5.97
2023-05-08T03:41:21.892Z,6.20
2023-05-08T03:46:59.755Z,6.75
2023-05-08T03:50:00.194Z,6.03
2023-05-08T03:52:34.113Z,6.15
2023-05-08T03:55:07.812Z,5.95
2023-05-08T03:57:52.475Z,5.78
2023-05-08T04:00:54.431Z,5.63
2023-05-08T04:08:19.913Z,5.75
2023-05-08T04:11:10.426Z,5.80
2023-05-08T04:14:03.607Z,6.18
2023-05-08T04:16:58.192Z,5.57
2023-05-08T04:19:45.282Z,6.18
2023-05-08T04:22:37.965Z,5.65
2023-05-08T04:25:34.424Z,6.05
2023-05-08T04:28:54.223Z,6.20
2023-05-08T04:32:38.845Z,5.22
2023-05-08T04:36:09.849Z,6.45
2023-05-08T04:46:13.414Z,6.18
2023-05-08T04:50:10.709Z,6.03
2023-05-08T04:53:53.302Z,6.07
2023-05-08T04:57:02.796Z,5.90
2023-05-08T05:09:15.357Z,6.38
2023-05-08T05:19:44.150Z,5.85
2023-05-08T05:23:08.100Z,5.22
2023-05-08T05:26:19.423Z,4.80
2023-05-08T05:34:11.273Z,3.83
2023-05-08T05:37:05.509Z,4.28
2023-05-08T05:40:09.868Z,4.00
2023-05-08T05:46:51.005Z,4.18
2023-05-08T05:49:47.658Z,4.00
2023-05-08T05:53:09.443Z,3.63
2023-05-08T05:55:46.912Z,3.65
2023-05-08T05:58:58.831Z,3.83
2023-05-08T06:01:37.146Z,3.67
2023-05-08T06:04:09.564Z,4.00
2023-05-08T06:06:37.841Z,4.57
2023-05-08T06:09:07.508Z,4.45
2023-05-08T06:12:00.040Z,4.82
2023-05-08T06:14:43.434Z,4.95
2023-05-08T06:17:22.521Z,4.90
2023-05-08T06:19:56.096Z,4.75
2023-05-08T06:22:25.797Z,5.25
2023-05-08T06:25:03.110Z,5.47
2023-05-08T06:28:22.673Z,6.00
2023-05-08T06:30:51.475Z,5.50
2023-05-08T06:33:30.614Z,6.30
2023-05-08T06:36:06.129Z,6.03
2023-05-08T06:38:34.428Z,5.28
2023-05-08T06:41:05.129Z,5.40
2023-05-08T06:43:33.476Z,5.53
2023-05-08T06:46:07.048Z,4.97
2023-05-08T06:48:40.136Z,4.97
2023-05-08T06:54:27.477Z,4.72
2023-05-08T06:56:55.704Z,3.80
2023-05-08T06:59:24.414Z,3.75
2023-05-08T07:01:52.488Z,3.70
2023-05-08T07:04:21.925Z,3.40
2023-05-08T07:06:50.044Z,3.10
2023-05-08T07:09:19.886Z,3.20
2023-05-08T07:11:48.143Z,3.40
2023-05-08T07:14:16.247Z,3.63
2023-05-08T07:17:09.969Z,5.00
2023-05-08T07:19:39.729Z,3.80
2023-05-08T07:22:07.866Z,3.28
2023-05-08T07:24:35.861Z,4.35
2023-05-08T07:27:03.830Z,4.50
2023-05-08T07:29:57.508Z,5.18
2023-05-08T07:32:25.597Z,4.75
2023-05-08T07:34:54.893Z,4.82
2023-05-08T07:37:24.015Z,5.15
2023-05-08T07:39:51.949Z,4.68
2023-05-08T07:42:19.912Z,4.85
2023-05-08T07:44:54.434Z,5.13
2023-05-08T07:47:23.444Z,4.95
2023-05-08T07:49:51.614Z,4.43
2023-05-08T07:52:20.929Z,4.78
2023-05-08T07:54:48.933Z,5.18
2023-05-08T07:57:17.108Z,6.18
2023-05-08T07:59:45.161Z,4.47
2023-05-08T08:02:13.207Z,3.00
2023-05-08T08:04:41.162Z,3.55
2023-05-08T08:07:09.082Z,3.67
2023-05-08T08:09:38.421Z,3.40
2023-05-08T08:12:06.580Z,4.68
2023-05-08T08:14:34.462Z,4.63
2023-05-08T08:17:02.561Z,5.07
2023-05-08T08:19:30.599Z,4.30
2023-05-08T08:21:58.558Z,4.15
2023-05-08T08:24:26.628Z,4.78
2023-05-08T08:26:55.977Z,4.32
2023-05-08T08:29:24.308Z,4.85
2023-05-08T08:31:52.412Z,4.63
2023-05-08T08:34:20.363Z,4.47
2023-05-08T08:36:48.624Z,4.05
2023-05-08T08:39:17.135Z,4.32
2023-05-08T08:41:45.122Z,4.72
2023-05-08T08:44:14.462Z,5.70
2023-05-08T08:46:50.899Z,4.90
2023-05-08T08:49:20.173Z,4.47
2023-05-08T08:51:52.299Z,4.68
2023-05-08T08:54:24.363Z,5.15
2023-05-08T08:56:54.352Z,5.25
2023-05-08T08:59:26.822Z,4.18
2023-05-08T09:01:57.566Z,4.50
2023-05-08T09:06:55.700Z,3.85
2023-05-08T09:09:24.286Z,3.88
2023-05-08T09:11:53.514Z,4.35
2023-05-08T09:14:25.826Z,3.92
2023-05-08T09:16:54.888Z,4.43
2023-05-08T09:19:25.621Z,2.88
2023-05-08T09:21:55.752Z,3.05
2023-05-08T09:24:24.611Z,3.03
2023-05-08T09:26:52.518Z,2.88
2023-05-08T09:29:22.223Z,2.97
2023-05-08T09:31:53.418Z,3.67
2023-05-08T09:34:27.149Z,3.47
2023-05-08T09:36:56.314Z,2.85
2023-05-08T09:39:25.857Z,3.15
2023-05-08T09:42:00.944Z,2.20
2023-05-08T09:44:29.077Z,2.88
2023-05-08T09:47:12.869Z,2.30
2023-05-08T09:49:41.244Z,2.70
2023-05-08T09:52:09.596Z,2.20
2023-05-08T09:54:37.583Z,2.70
2023-05-08T09:57:13.235Z,2.05
2023-05-08T09:59:41.433Z,2.08
2023-05-08T10:02:16.286Z,2.42
2023-05-08T10:04:44.448Z,2.05
2023-05-08T10:07:12.438Z,2.20
2023-05-08T10:09:50.175Z,1.77
2023-05-08T10:12:19.672Z,1.77
2023-05-08T10:14:47.657Z,2.00
2023-05-08T10:17:26.196Z,2.10
2023-05-08T10:19:59.233Z,2.13
2023-05-08T10:22:28.576Z,2.33
2023-05-08T10:24:58.553Z,2.10
2023-05-08T10:27:35.031Z,2.10
2023-05-08T10:30:05.284Z,1.60
2023-05-08T10:32:40.643Z,2.15
2023-05-08T10:35:11.714Z,2.67
2023-05-08T10:37:42.255Z,2.00
2023-05-08T10:40:12.098Z,1.75
2023-05-08T10:42:41.047Z,2.13
2023-05-08T10:45:10.727Z,1.70
2023-05-08T10:47:49.663Z,1.70
2023-05-08T10:50:48.405Z,2.20
2023-05-08T10:53:21.682Z,3.75
2023-05-08T10:55:52.907Z,1.92
2023-05-08T10:58:31.378Z,1.63
2023-05-08T11:01:13.757Z,2.00
2023-05-08T11:03:46.078Z,1.50
2023-05-08T11:06:15.529Z,2.15
2023-05-08T11:08:51.578Z,1.75
2023-05-08T11:11:31.521Z,1.85
2023-05-08T11:14:10.765Z,2.08
2023-05-08T11:17:08.205Z,2.50
2023-05-08T11:19:38.675Z,1.83
2023-05-08T11:22:29.032Z,1.75
2023-05-08T11:25:02.479Z,3.78
2023-05-08T11:28:04.124Z,2.90
2023-05-08T11:30:57.522Z,2.10
2023-05-08T11:33:31.490Z,3.58
2023-05-08T11:36:02.312Z,2.13
2023-05-08T11:38:35.976Z,2.28
2023-05-08T11:41:06.323Z,2.33
2023-05-08T11:44:14.867Z,2.13
2023-05-08T11:46:46.222Z,1.50
2023-05-08T11:49:17.282Z,1.65
2023-05-08T11:51:49.756Z,1.70
2023-05-08T11:54:19.745Z,2.20
2023-05-08T11:56:51.131Z,1.95
2023-05-08T11:59:19.378Z,1.90
2023-05-08T12:02:06.804Z,1.75
2023-05-08T12:05:04.538Z,1.60
2023-05-08T12:07:34.163Z,1.23
2023-05-08T12:10:02.733Z,11.95
2023-05-08T12:12:40.271Z,3.08
2023-05-08T12:15:09.534Z,4.40
2023-05-08T12:17:38.223Z,2.17
2023-05-08T12:20:14.690Z,1.23
2023-05-08T12:22:51.642Z,3.90
2023-05-08T12:25:20.588Z,1.42
2023-05-08T12:28:14.384Z,1.73
2023-05-08T12:30:42.470Z,3.75
2023-05-08T12:33:11.957Z,2.15
2023-05-08T12:35:40.351Z,3.85
2023-05-08T12:38:10.760Z,2.70
2023-05-08T12:40:42.685Z,1.63
2023-05-08T12:43:11.486Z,3.10
2023-05-08T12:45:40.447Z,2.13
2023-05-08T12:48:09.955Z,1.92
2023-05-08T12:50:40.120Z,1.95
2023-05-08T12:53:11.185Z,1.45
2023-05-08T12:56:30.175Z,1.27
2023-05-08T12:59:00.693Z,1.15
2023-05-08T13:01:28.854Z,1.17
2023-05-08T13:04:02.110Z,1.60
2023-05-08T13:06:30.450Z,1.08
2023-05-08T13:08:59.783Z,1.38
2023-05-08T13:11:33.085Z,1.30
2023-05-08T13:14:01.232Z,1.60
2023-05-08T13:16:29.425Z,1.60
2023-05-08T13:18:57.384Z,1.50
2023-05-08T13:21:27.626Z,1.35
2023-05-08T13:23:56.909Z,1.55
2023-05-08T13:26:26.474Z,1.42
2023-05-08T13:28:56.404Z,2.42
2023-05-08T13:31:24.800Z,1.50
2023-05-08T13:33:52.808Z,1.50
2023-05-08T13:36:21.033Z,1.30
2023-05-08T13:38:49.000Z,1.40
2023-05-08T13:41:16.929Z,1.50
2023-05-08T13:43:46.287Z,1.60
2023-05-08T13:46:14.563Z,1.40
2023-05-08T13:48:42.535Z,1.20
2023-05-08T13:51:10.494Z,1.38
2023-05-08T13:53:38.419Z,1.75
2023-05-08T13:56:06.729Z,1.88
2023-05-08T13:58:34.787Z,1.58
2023-05-08T14:01:17.719Z,1.42
2023-05-08T14:03:52.272Z,1.60
2023-05-08T14:06:20.583Z,1.35
2023-05-08T14:08:51.096Z,2.20
2023-05-08T14:11:20.850Z,1.30
2023-05-08T14:13:48.802Z,1.30
2023-05-08T14:16:18.184Z,1.80
2023-05-08T14:18:46.169Z,1.45
2023-05-08T14:21:14.130Z,1.60
2023-05-08T14:23:42.755Z,1.70
2023-05-08T14:26:10.667Z,1.88
2023-05-08T14:28:38.632Z,7.13
2023-05-08T14:31:06.825Z,1.80
2023-05-08T14:33:36.790Z,1.10
2023-05-08T14:36:04.937Z,1.57
2023-05-08T14:38:32.949Z,1.40
2023-05-08T14:41:04.246Z,1.50
2023-05-08T14:43:32.821Z,1.45
2023-05-08T14:46:01.037Z,1.35
2023-05-08T14:48:29.061Z,1.80
2023-05-08T14:50:58.739Z,3.58
2023-05-08T14:53:26.885Z,1.55
2023-05-08T14:55:55.209Z,1.80
2023-05-08T14:58:23.412Z,1.27
2023-05-08T15:00:51.338Z,1.05
2023-05-08T15:03:19.673Z,1.23
2023-05-08T15:05:48.442Z,1.00
2023-05-08T15:08:17.902Z,1.33
2023-05-08T15:10:45.959Z,1.10
2023-05-08T15:13:14.206Z,1.30
2023-05-08T15:15:42.235Z,1.50
2023-05-08T15:18:10.197Z,1.33
2023-05-08T15:20:38.149Z,1.95
2023-05-08T15:23:06.594Z,1.90
2023-05-08T15:25:36.484Z,1.80
2023-05-08T15:28:04.621Z,1.85
2023-05-08T15:30:32.583Z,2.10
2023-05-08T15:33:00.646Z,1.67
2023-05-08T15:35:28.666Z,2.38
2023-05-08T15:37:56.837Z,2.45
2023-05-08T15:40:25.185Z,2.80
2023-05-08T15:42:54.764Z,2.63
2023-05-08T15:45:22.968Z,2.15
2023-05-08T15:47:51.345Z,2.80
2023-05-08T15:50:19.423Z,2.40
2023-05-08T15:52:47.713Z,2.00
2023-05-08T15:55:17.581Z,2.15
2023-05-08T15:57:45.538Z,2.35
2023-05-08T16:00:15.962Z,2.85
2023-05-08T16:02:43.907Z,3.28
2023-05-08T16:05:12.094Z,3.03
2023-05-08T16:07:40.274Z,5.18
2023-05-08T16:10:09.914Z,3.40
2023-05-08T16:12:37.976Z,3.10
2023-05-08T16:15:07.134Z,2.85
2023-05-08T16:17:36.500Z,2.47
2023-05-08T16:20:05.184Z,2.40
2023-05-08T16:22:33.264Z,2.20
2023-05-08T16:25:01.272Z,2.33
2023-05-08T16:27:29.505Z,2.33
2023-05-08T16:29:57.475Z,2.97
2023-05-08T16:32:27.139Z,2.67
2023-05-08T16:34:56.594Z,2.42
2023-05-08T16:37:24.505Z,2.55
2023-05-08T16:39:52.587Z,1.80
2023-05-08T16:42:20.934Z,2.42
2023-05-08T16:44:48.977Z,3.35
2023-05-08T16:47:17.044Z,2.60
2023-05-08T16:49:45.488Z,2.45
2023-05-08T16:52:17.878Z,2.70
2023-05-08T16:54:45.784Z,3.58
2023-05-08T16:57:13.734Z,3.90
2023-05-08T16:59:42.463Z,2.78
2023-05-08T17:02:11.952Z,2.67
2023-05-08T17:04:39.967Z,2.97
2023-05-08T17:07:08.145Z,4.75
2023-05-08T17:09:37.416Z,2.55
2023-05-08T17:12:06.428Z,2.85
2023-05-08T17:14:37.995Z,3.53
2023-05-08T17:17:06.137Z,2.97
2023-05-08T17:19:34.183Z,3.17
2023-05-08T17:22:02.559Z,2.53
2023-05-08T17:24:31.010Z,2.72
2023-05-08T17:27:00.397Z,2.97
2023-05-08T17:29:28.447Z,2.30
2023-05-08T17:31:56.439Z,2.55
2023-05-08T17:34:24.497Z,2.20
2023-05-08T17:36:54.435Z,2.00
2023-05-08T17:39:23.120Z,1.55
2023-05-08T17:41:51.455Z,2.00
2023-05-08T17:44:22.635Z,2.03
2023-05-08T17:46:50.990Z,2.10
2023-05-08T17:49:19.584Z,2.05
2023-05-08T17:51:47.665Z,1.60
2023-05-08T17:54:15.674Z,3.88
2023-05-08T17:56:44.413Z,4.30
2023-05-08T17:59:12.581Z,2.60
2023-05-08T18:01:42.285Z,2.00
2023-05-08T18:04:12.935Z,1.70
2023-05-08T18:06:43.490Z,1.60
2023-05-08T18:09:11.619Z,1.67
2023-05-08T18:11:39.769Z,1.60
2023-05-08T18:14:07.916Z,2.00
2023-05-08T18:16:35.925Z,1.85
2023-05-08T18:19:05.572Z,1.92
2023-05-08T18:21:34.094Z,2.00
2023-05-08T18:24:02.410Z,2.00
2023-05-08T18:26:30.937Z,2.08
2023-05-08T18:28:59.067Z,2.00
2023-05-08T18:31:27.434Z,1.95
2023-05-08T18:33:55.698Z,2.00
2023-05-08T18:36:25.880Z,2.30
2023-05-08T18:38:54.323Z,1.75
2023-05-08T18:41:23.420Z,2.22
2023-05-08T18:43:51.484Z,2.58
2023-05-08T18:46:19.490Z,2.10
2023-05-08T18:48:47.546Z,2.22
2023-05-08T18:51:15.471Z,2.38
2023-05-08T18:53:44.799Z,2.40
2023-05-08T18:56:13.015Z,2.60
2023-05-08T18:58:41.155Z,2.70
2023-05-08T19:01:10.460Z,2.33
2023-05-08T19:03:39.655Z,2.53
2023-05-08T19:06:07.839Z,2.65
2023-05-08T19:08:39.786Z,3.17
2023-05-08T19:11:10.533Z,3.00
2023-05-08T19:13:43.620Z,3.03
2023-05-08T19:16:12.946Z,3.17
2023-05-08T19:18:41.004Z,3.42
2023-05-08T19:21:10.865Z,3.53
2023-05-08T19:23:41.706Z,3.47
2023-05-08T19:26:16.639Z,3.35
2023-05-08T19:28:47.543Z,3.47
2023-05-08T19:33:44.330Z,2.80
2023-05-08T19:36:12.392Z,2.60
2023-05-08T19:38:40.612Z,3.00
2023-05-08T19:41:08.700Z,3.03
2023-05-08T19:43:38.269Z,2.70
2023-05-08T19:46:06.358Z,2.30
2023-05-08T19:48:34.484Z,2.60
2023-05-08T19:51:07.261Z,2.38
2023-05-08T19:53:35.414Z,2.78
2023-05-08T19:56:04.396Z,3.03
2023-05-08T19:58:33.691Z,2.83
2023-05-08T20:01:03.809Z,2.85
2023-05-08T20:03:32.879Z,2.75
2023-05-08T20:06:01.964Z,2.83
2023-05-08T20:08:30.168Z,2.90
2023-05-08T20:11:02.732Z,2.78
2023-05-08T20:13:31.313Z,2.92
2023-05-08T20:15:59.552Z,2.78
2023-05-08T20:18:28.999Z,3.15
2023-05-08T20:20:56.916Z,2.92
2023-05-08T20:23:24.874Z,2.95
2023-05-08T20:25:54.188Z,3.60
2023-05-08T20:28:25.976Z,3.58
2023-05-08T20:30:54.211Z,3.70
2023-05-08T20:33:22.167Z,4.07
2023-05-08T20:35:51.593Z,4.10
2023-05-08T20:38:19.685Z,4.10
2023-05-08T20:40:47.801Z,4.30
2023-05-08T20:43:16.795Z,4.97
2023-05-08T20:45:44.824Z,4.47
2023-05-08T20:48:12.793Z,4.65
2023-05-08T20:50:40.719Z,4.95
2023-05-08T20:53:10.062Z,5.35
2023-05-08T20:55:38.091Z,4.50
2023-05-08T20:58:07.161Z,4.50
2023-05-08T21:00:35.315Z,5.78
2023-05-08T21:03:03.798Z,6.20
2023-05-08T21:05:31.968Z,6.10
2023-05-08T21:08:02.542Z,5.90
2023-05-08T21:10:32.054Z,6.93
2023-05-08T21:13:00.037Z,6.55
2023-05-08T21:15:28.140Z,6.82
2023-05-08T21:17:57.014Z,7.10
2023-05-08T21:20:25.911Z,6.53
2023-05-08T21:22:54.436Z,6.53
2023-05-08T21:25:26.353Z,5.93
2023-05-08T21:27:56.436Z,6.85
2023-05-08T21:30:25.024Z,6.35
2023-05-08T21:32:53.573Z,6.25
2023-05-08T21:35:22.239Z,6.63
2023-05-08T21:37:53.945Z,6.50
2023-05-08T21:40:22.921Z,7.40
2023-05-08T21:42:51.025Z,7.03
2023-05-08T21:45:20.421Z,7.68
2023-05-08T21:47:51.496Z,7.00
2023-05-08T21:50:19.898Z,7.13
2023-05-08T21:52:48.241Z,6.85
2023-05-08T21:55:18.755Z,6.78
2023-05-08T21:57:46.754Z,7.13
2023-05-08T22:00:23.873Z,7.20
2023-05-08T22:02:55.108Z,7.60
2023-05-08T22:05:24.111Z,7.75
2023-05-08T22:07:52.261Z,7.15
2023-05-08T22:10:21.563Z,7.25
2023-05-08T22:12:49.792Z,7.65
2023-05-08T22:15:29.255Z,8.02
2023-05-08T22:18:02.768Z,8.05
2023-05-08T22:20:31.942Z,8.13
2023-05-08T22:23:00.209Z,8.15
2023-05-08T22:25:28.585Z,8.50
2023-05-08T22:27:56.850Z,8.05
2023-05-08T22:30:25.285Z,7.85
2023-05-08T22:32:55.594Z,7.90
2023-05-08T22:35:26.887Z,7.20
2023-05-08T22:42:05.362Z,6.18
2023-05-08T22:44:33.665Z,6.65
2023-05-08T22:47:02.180Z,6.18
2023-05-08T22:49:30.622Z,6.38
2023-05-08T22:52:48.242Z,5.35
2023-05-08T22:55:17.900Z,5.07
2023-05-08T22:57:46.134Z,5.57
2023-05-08T23:00:16.418Z,5.47
2023-05-08T23:02:44.788Z,5.60
2023-05-08T23:05:13.163Z,4.53
2023-05-08T23:07:41.971Z,4.35
2023-05-08T23:10:10.708Z,4.35
2023-05-08T23:12:40.076Z,4.25
2023-05-08T23:15:09.134Z,4.47
2023-05-08T23:17:37.150Z,4.72
2023-05-08T23:20:05.980Z,4.32
2023-05-08T23:22:34.170Z,3.60
2023-05-08T23:25:02.147Z,3.70
2023-05-08T23:27:30.145Z,3.75
2023-05-08T23:29:59.625Z,3.20
2023-05-08T23:32:27.591Z,3.50
2023-05-08T23:34:55.812Z,2.88
2023-05-08T23:37:23.866Z,2.55
2023-05-08T23:39:51.831Z,2.47
2023-05-08T23:42:20.442Z,2.72
2023-05-08T23:44:48.399Z,2.50
2023-05-08T23:47:19.254Z,1.95
2023-05-08T23:49:47.337Z,1.80
2023-05-08T23:52:15.389Z,1.70
2023-05-08T23:54:43.410Z,1.70
2023-05-08T23:57:36.732Z,1.73
